Time;durP1;ratioP1;P1;durP2;ratioP2;P2;SDS_P1;SDS_P2;PMS_P1;PMS_P2;Temp;Humidity;BMP_temperature;BMP_pressure;BME280_temperature;BME280_humidity;BME280_pressure;Samples;Min_cycle;Max_cycle;Signal;HPM_P1;HPM_P2
2022/05/27 00:00:08;;;;;;;372.58;255.95;;;;;;;23.61;66.96;99939.56;338995;29;1501;-80
2022/05/27 00:00:22;;;;;;;369.63;250.80;;;;;;;23.58;67.25;99942.50;337160;29;1391;-80
2022/05/27 00:00:33;;;;;;;367.42;246.48;;;;;;;23.59;67.34;99939.69;337903;29;1382;-80
2022/05/27 00:00:44;;;;;;;365.65;248.98;;;;;;;23.58;67.04;99938.00;337098;29;820;-80
2022/05/27 00:00:54;;;;;;;367.30;251.35;;;;;;;23.60;67.02;99943.22;339417;29;1481;-80
2022/05/27 00:01:05;;;;;;;367.02;253.23;;;;;;;23.52;67.02;99939.38;338440;29;1609;-80
2022/05/27 00:01:17;;;;;;;373.50;255.23;;;;;;;23.55;67.32;99941.78;339592;29;1373;-80
2022/05/27 00:01:27;;;;;;;376.85;257.35;;;;;;;23.56;67.03;99945.31;341232;29;1409;-80
2022/05/27 00:01:38;;;;;;;376.13;255.63;;;;;;;23.59;66.83;99939.69;338346;29;1438;-80
2022/05/27 00:01:48;;;;;;;372.20;252.95;;;;;;;23.60;67.01;99937.88;339618;29;1550;-80
2022/05/27 00:02:00;;;;;;;371.93;254.97;;;;;;;23.56;67.14;99942.63;335984;29;1210;-80
2022/05/27 00:02:10;;;;;;;372.90;258.02;;;;;;;23.59;66.81;99944.19;340993;29;1472;-80
2022/05/27 00:02:21;;;;;;;379.30;262.83;;;;;;;23.60;67.11;99941.38;339092;29;1405;-80
2022/05/27 00:02:32;;;;;;;380.98;260.67;;;;;;;23.58;66.99;99932.66;337979;29;1313;-80
2022/05/27 00:02:43;;;;;;;379.90;255.13;;;;;;;23.61;66.95;99943.06;340053;29;1599;-80
2022/05/27 00:02:53;;;;;;;374.05;247.98;;;;;;;23.61;67.21;99945.75;341332;29;1369;-80
2022/05/27 00:03:03;;;;;;;373.03;247.03;;;;;;;23.63;66.72;99942.94;337968;29;1272;-80
2022/05/27 00:03:14;;;;;;;374.10;251.20;;;;;;;23.60;67.11;99940.53;338970;29;1357;-80
2022/05/27 00:03:25;;;;;;;375.70;254.20;;;;;;;23.59;66.87;99941.53;337123;29;1573;-80
2022/05/27 00:03:35;;;;;;;372.95;255.25;;;;;;;23.59;66.92;99944.19;339710;29;1337;-80
2022/05/27 00:03:46;;;;;;;378.30;259.53;;;;;;;23.61;66.73;99942.22;339620;29;1206;-80
2022/05/27 00:03:57;;;;;;;376.05;260.77;;;;;;;23.57;67.15;99938.13;339822;29;890;-80
2022/05/27 00:04:07;;;;;;;374.92;258.83;;;;;;;23.59;66.91;99939.69;336522;29;1580;-80
2022/05/27 00:04:18;;;;;;;370.67;255.80;;;;;;;23.59;67.19;99936.19;339957;29;794;-80
2022/05/27 00:04:28;;;;;;;369.23;252.20;;;;;;;23.60;66.86;99940.53;338878;29;1309;-80
2022/05/27 00:04:38;;;;;;;367.10;253.17;;;;;;;23.61;66.87;99942.22;339958;29;1670;-80
2022/05/27 00:04:49;;;;;;;367.38;253.27;;;;;;;23.58;67.47;99934.50;338469;29;1552;-80
2022/05/27 00:05:00;;;;;;;370.50;254.87;;;;;;;23.62;67.03;99938.56;337309;29;1183;-80
2022/05/27 00:05:10;;;;;;;371.23;252.95;;;;;;;23.61;66.98;99942.22;336072;29;1427;-80
2022/05/27 00:05:21;;;;;;;371.80;248.30;;;;;;;23.59;67.10;99937.03;338414;29;1616;-80
2022/05/27 00:05:31;;;;;;;373.60;248.70;;;;;;;23.61;66.94;99931.53;338697;29;2612;-80
2022/05/27 00:05:42;;;;;;;373.13;245.77;;;;;;;23.62;66.83;99935.91;341596;28;2995;-80
2022/05/27 00:05:52;;;;;;;374.05;252.07;;;;;;;23.63;66.76;99940.28;338416;29;1426;-79
2022/05/27 00:06:03;;;;;;;371.10;250.60;;;;;;;23.63;67.06;99937.59;337462;29;1744;-79
2022/05/27 00:06:13;;;;;;;371.02;255.40;;;;;;;23.61;66.96;99942.22;339745;29;1238;-79
2022/05/27 00:06:24;;;;;;;365.73;247.05;;;;;;;23.61;67.06;99945.75;338551;29;1210;-79
2022/05/27 00:06:34;;;;;;;368.43;251.33;;;;;;;23.62;66.71;99941.25;338859;29;1625;-79
2022/05/27 00:06:45;;;;;;;366.67;247.93;;;;;;;23.61;66.66;99942.22;340289;29;1020;-79
2022/05/27 00:06:55;;;;;;;369.67;255.07;;;;;;;23.61;66.78;99937.72;337209;29;1557;-79
2022/05/27 00:07:06;;;;;;;370.30;254.02;;;;;;;23.60;66.95;99940.53;340535;28;1457;-79
2022/05/27 00:07:16;;;;;;;371.27;253.83;;;;;;;23.59;66.98;99934.34;338399;29;1580;-79
2022/05/27 00:07:26;;;;;;;367.83;252.87;;;;;;;23.60;66.92;99932.53;341154;29;1186;-80
2022/05/27 00:07:37;;;;;;;368.40;255.38;;;;;;;23.60;67.20;99945.88;340005;29;1531;-80
2022/05/27 00:07:47;;;;;;;367.13;252.83;;;;;;;23.58;66.86;99932.66;337625;29;1331;-80
2022/05/27 00:07:57;;;;;;;368.98;251.02;;;;;;;23.59;66.53;99939.69;339227;29;1365;-80
2022/05/27 00:08:09;;;;;;;367.77;248.70;;;;;;;23.59;67.09;99934.34;339642;29;1446;-80
2022/05/27 00:08:19;;;;;;;368.55;248.50;;;;;;;23.59;67.00;99938.84;338888;29;1283;-80
2022/05/27 00:08:30;;;;;;;368.58;251.07;;;;;;;23.58;67.13;99937.16;340007;29;897;-80
2022/05/27 00:08:40;;;;;;;373.10;253.43;;;;;;;23.58;66.42;99942.50;340288;29;862;-80
2022/05/27 00:08:51;;;;;;;374.33;256.38;;;;;;;23.58;66.63;99937.16;337030;29;1528;-80
2022/05/27 00:09:01;;;;;;;375.83;255.70;;;;;;;23.57;66.74;99935.47;338312;29;1307;-80
2022/05/27 00:09:12;;;;;;;374.15;257.05;;;;;;;23.56;67.15;99939.97;337429;29;918;-80
2022/05/27 00:09:23;;;;;;;373.73;257.73;;;;;;;23.54;67.15;99932.09;342267;28;1473;-80
2022/05/27 00:09:33;;;;;;;372.23;258.33;;;;;;;23.54;66.81;99929.41;339281;29;1476;-80
2022/05/27 00:09:43;;;;;;;373.60;255.90;;;;;;;23.54;67.04;99928.56;337431;29;1252;-80
2022/05/27 00:09:54;;;;;;;375.60;254.57;;;;;;;23.54;67.22;99932.09;340939;29;1493;-80
2022/05/27 00:10:05;;;;;;;379.33;253.48;;;;;;;23.58;66.94;99929.13;342287;28;1548;-80
2022/05/27 00:10:15;;;;;;;372.33;249.63;;;;;;;23.58;67.03;99932.66;337566;29;1480;-81
2022/05/27 00:10:26;;;;;;;370.07;252.43;;;;;;;23.59;66.76;99938.84;340985;29;1082;-80
2022/05/27 00:10:37;;;;;;;365.98;254.55;;;;;;;23.55;67.19;99922.25;339685;29;1524;-80
2022/05/27 00:10:47;;;;;;;370.23;258.10;;;;;;;23.56;66.79;99937.28;336570;29;1325;-80
2022/05/27 00:10:58;;;;;;;371.10;255.18;;;;;;;23.54;66.80;99937.44;338739;29;1282;-80
2022/05/27 00:11:08;;;;;;;372.63;256.70;;;;;;;23.55;66.84;99939.13;339477;29;1517;-80
2022/05/27 00:11:19;;;;;;;372.00;253.93;;;;;;;23.51;67.07;99932.31;341131;29;1481;-80
2022/05/27 00:11:30;;;;;;;370.80;251.57;;;;;;;23.52;67.10;99928.69;337288;29;1365;-80
2022/05/27 00:11:40;;;;;;;372.50;250.88;;;;;;;23.52;66.98;99931.34;340986;29;1377;-80
2022/05/27 00:11:51;;;;;;;373.37;253.13;;;;;;;23.55;67.10;99932.94;340675;29;1448;-80
2022/05/27 00:12:01;;;;;;;375.77;257.80;;;;;;;23.50;67.19;99925.28;337510;29;1493;-80
2022/05/27 00:12:11;;;;;;;373.67;257.73;;;;;;;23.51;67.26;99935.00;337279;29;1202;-80
2022/05/27 00:12:22;;;;;;;372.60;256.65;;;;;;;23.51;66.83;99932.31;337766;29;1245;-80
2022/05/27 00:12:32;;;;;;;373.97;255.47;;;;;;;23.50;66.94;99941.31;338349;29;1485;-80
2022/05/27 00:12:43;;;;;;;375.33;253.80;;;;;;;23.46;67.08;99923.88;338809;29;883;-80
2022/05/27 00:12:53;;;;;;;378.40;257.50;;;;;;;23.47;67.08;99940.75;339961;29;1472;-80
2022/05/27 00:13:04;;;;;;;374.83;252.32;;;;;;;23.45;67.09;99932.88;338850;29;1374;-80
2022/05/27 00:13:14;;;;;;;374.50;251.33;;;;;;;23.46;67.08;99931.91;339826;29;1343;-80
2022/05/27 00:13:25;;;;;;;372.02;248.00;;;;;;;23.45;67.22;99926.69;340031;29;1492;-79
2022/05/27 00:13:36;;;;;;;374.80;255.17;;;;;;;23.46;67.15;99921.22;341542;29;1211;-79
2022/05/27 00:13:46;;;;;;;377.55;259.40;;;;;;;23.46;66.88;99934.56;340936;29;1489;-79
2022/05/27 00:13:57;;;;;;;374.17;258.23;;;;;;;23.47;67.30;99925.56;338707;29;1368;-79
2022/05/27 00:14:07;;;;;;;375.63;257.50;;;;;;;23.49;67.02;99928.94;340110;29;1496;-79
2022/05/27 00:14:18;;;;;;;372.05;253.00;;;;;;;23.46;66.99;99929.22;337337;29;1450;-79
2022/05/27 00:14:28;;;;;;;372.93;253.93;;;;;;;23.47;67.14;99924.72;338713;29;869;-79
2022/05/27 00:14:39;;;;;;;370.00;256.00;;;;;;;23.51;66.90;99932.31;338474;29;3676;-79
2022/05/27 00:14:49;;;;;;;370.03;253.57;;;;;;;23.50;67.00;99925.28;338866;29;3104;-79
2022/05/27 00:15:00;;;;;;;369.07;251.20;;;;;;;23.51;67.30;99934.16;338457;29;1346;-79
2022/05/27 00:15:11;;;;;;;370.85;249.82;;;;;;;23.49;67.30;99928.94;336883;29;1613;-79
2022/05/27 00:15:21;;;;;;;373.63;253.43;;;;;;;23.50;67.15;99930.63;337431;29;3150;-79
2022/05/27 00:15:32;;;;;;;372.27;252.90;;;;;;;23.50;67.30;99930.63;341403;29;1196;-79
2022/05/27 00:15:42;;;;;;;372.47;249.33;;;;;;;23.49;67.31;99926.28;338498;29;1206;-79
2022/05/27 00:15:53;;;;;;;371.83;249.88;;;;;;;23.53;67.21;99934.91;336923;29;1403;-79
2022/05/27 00:16:03;;;;;;;369.43;249.40;;;;;;;23.52;67.04;99927.84;341348;29;1527;-79
2022/05/27 00:16:14;;;;;;;370.35;251.38;;;;;;;23.48;66.85;99926.41;341216;29;1743;-79
2022/05/27 00:16:24;;;;;;;370.80;251.80;;;;;;;23.48;66.78;99927.25;338128;29;1478;-79
2022/05/27 00:16:35;;;;;;;370.45;248.23;;;;;;;23.51;67.19;99937.66;341623;28;1485;-79
2022/05/27 00:16:45;;;;;;;371.47;250.93;;;;;;;23.50;67.04;99930.63;342830;28;1319;-79
2022/05/27 00:16:55;;;;;;;371.65;249.35;;;;;;;23.48;67.02;99927.25;338568;29;1588;-79
2022/05/27 00:17:06;;;;;;;373.97;252.30;;;;;;;23.48;67.03;99926.41;339761;29;1231;-79
2022/05/27 00:17:16;;;;;;;371.27;249.13;;;;;;;23.50;66.91;99935.13;341238;29;1629;-79
2022/05/27 00:17:27;;;;;;;371.47;248.90;;;;;;;23.48;66.96;99931.75;339959;29;1625;-79
2022/05/27 00:17:37;;;;;;;370.13;245.80;;;;;;;23.50;67.04;99930.63;337191;29;1477;-79
2022/05/27 00:17:48;;;;;;;372.57;244.93;;;;;;;23.46;67.39;99923.88;338591;29;1504;-79
2022/05/27 00:17:58;;;;;;;371.17;242.93;;;;;;;23.46;67.05;99923.03;338091;29;1563;-79
2022/05/27 00:18:09;;;;;;;369.50;244.03;;;;;;;23.48;67.07;99924.59;338690;29;1528;-79
2022/05/27 00:18:19;;;;;;;369.88;247.18;;;;;;;23.47;67.03;99930.91;339665;29;1229;-79
2022/05/27 00:18:30;;;;;;;373.90;254.83;;;;;;;23.42;67.06;99919.78;337297;29;1218;-79
2022/05/27 00:18:40;;;;;;;374.45;253.68;;;;;;;23.42;67.23;99925.13;337655;29;1533;-79
2022/05/27 00:18:50;;;;;;;371.90;252.60;;;;;;;23.42;67.21;99934.97;338891;29;1281;-79
2022/05/27 00:19:01;;;;;;;369.05;246.77;;;;;;;23.42;67.39;99925.13;340073;29;1247;-79
2022/05/27 00:19:11;;;;;;;369.13;248.43;;;;;;;23.40;67.02;99916.41;338566;29;1215;-79
2022/05/27 00:19:22;;;;;;;369.88;247.60;;;;;;;23.41;67.32;99925.25;339948;29;1548;-79
2022/05/27 00:19:32;;;;;;;371.73;250.00;;;;;;;23.44;67.20;99931.19;337665;29;1478;-79
2022/05/27 00:19:43;;;;;;;373.27;253.90;;;;;;;23.45;67.20;99926.69;336979;29;1550;-79
2022/05/27 00:19:53;;;;;;;375.08;254.07;;;;;;;23.43;67.17;99928.66;339944;29;1403;-79
2022/05/27 00:20:04;;;;;;;373.43;254.03;;;;;;;23.45;67.18;99932.03;339833;29;1466;-79
2022/05/27 00:20:14;;;;;;;370.90;252.13;;;;;;;23.45;67.53;99932.03;338399;29;954;-79
2022/05/27 00:20:25;;;;;;;369.13;254.67;;;;;;;23.44;67.28;99922.31;337363;29;1443;-79
2022/05/27 00:20:36;;;;;;;368.02;253.93;;;;;;;23.45;67.10;99927.53;339878;29;1414;-79
2022/05/27 00:20:47;;;;;;;367.42;253.60;;;;;;;23.45;66.85;99930.19;341459;29;1430;-79
2022/05/27 00:20:58;;;;;;;369.52;252.10;;;;;;;23.42;67.10;99925.13;337182;29;1393;-79
2022/05/27 00:21:08;;;;;;;369.53;251.13;;;;;;;23.43;67.28;99929.50;338206;29;1542;-79
2022/05/27 00:21:19;;;;;;;368.75;251.30;;;;;;;23.45;67.49;99927.53;338429;29;1457;-79
2022/05/27 00:21:29;;;;;;;366.13;249.17;;;;;;;23.44;67.17;99931.19;338799;29;1252;-79
2022/05/27 00:21:40;;;;;;;367.65;250.95;;;;;;;23.45;67.20;99930.19;340129;29;1243;-79
2022/05/27 00:21:50;;;;;;;369.43;251.20;;;;;;;23.44;67.35;99931.19;338705;29;1576;-79
2022/05/27 00:22:00;;;;;;;372.05;252.20;;;;;;;23.43;67.51;99926.81;338466;29;1344;-79
2022/05/27 00:22:11;;;;;;;372.90;254.13;;;;;;;23.44;67.39;99928.50;338774;29;1536;-79
2022/05/27 00:22:21;;;;;;;370.73;251.90;;;;;;;23.43;67.51;99924.16;339003;29;1501;-79
2022/05/27 00:22:32;;;;;;;371.02;253.98;;;;;;;23.42;67.14;99930.47;338449;29;1524;-79
2022/05/27 00:22:42;;;;;;;370.83;252.00;;;;;;;23.42;67.58;99922.47;341384;29;1225;-79
2022/05/27 00:22:53;;;;;;;374.02;255.95;;;;;;;23.41;67.51;99920.75;339717;29;1465;-79
2022/05/27 00:23:03;;;;;;;376.40;257.60;;;;;;;23.40;67.59;99923.56;339519;29;1378;-81
2022/05/27 00:23:15;;;;;;;376.50;258.85;;;;;;;23.39;67.47;99927.25;338531;29;883;-80
2022/05/27 00:23:25;;;;;;;374.83;257.75;;;;;;;23.40;67.50;99929.75;338343;29;1435;-80
2022/05/27 00:23:37;;;;;;;370.65;252.27;;;;;;;23.37;67.56;99924.72;338877;29;1533;-80
2022/05/27 00:23:47;;;;;;;368.48;250.40;;;;;;;23.37;67.62;99924.72;339062;29;2633;-80
2022/05/27 00:24:00;;;;;;;364.73;248.88;;;;;;;23.38;67.40;99925.56;335812;29;2806;-80
2022/05/27 00:24:10;;;;;;;364.17;253.10;;;;;;;23.39;67.44;99928.09;338185;29;1616;-80
2022/05/27 00:24:21;;;;;;;366.85;249.05;;;;;;;23.40;67.34;99927.09;341325;29;1548;-80
2022/05/27 00:24:32;;;;;;;370.05;245.73;;;;;;;23.41;67.39;99925.25;338702;29;1418;-80
2022/05/27 00:24:42;;;;;;;366.27;245.83;;;;;;;23.40;67.24;99919.06;338661;29;1372;-80
2022/05/27 00:24:53;;;;;;;363.75;247.18;;;;;;;23.41;67.16;99926.13;337715;29;1525;-80
2022/05/27 00:25:04;;;;;;;367.77;250.98;;;;;;;23.42;67.59;99930.47;337477;29;1369;-80
2022/05/27 00:25:14;;;;;;;375.08;254.27;;;;;;;23.43;67.64;99924.16;335968;29;1414;-80
2022/05/27 00:25:25;;;;;;;374.33;255.87;;;;;;;23.38;67.20;99926.41;339623;29;1422;-80
2022/05/27 00:25:35;;;;;;;371.15;252.27;;;;;;;23.44;67.38;99925.00;339906;29;1503;-78
2022/05/27 00:25:46;;;;;;;366.40;246.83;;;;;;;23.42;67.15;99926.97;338605;29;1913;-78
2022/05/27 00:25:56;;;;;;;370.17;248.80;;;;;;;23.36;67.28;99923.03;342413;28;1344;-79
2022/05/27 00:26:07;;;;;;;371.63;253.70;;;;;;;23.37;67.39;99913.19;339817;29;1607;-79
2022/05/27 00:26:17;;;;;;;371.60;250.98;;;;;;;23.39;67.54;99921.91;339682;29;1523;-79
2022/05/27 00:26:28;;;;;;;374.93;249.93;;;;;;;23.40;67.38;99926.25;338846;29;1275;-79
2022/05/27 00:26:38;;;;;;;373.85;245.20;;;;;;;23.41;67.45;99930.59;339346;29;1540;-79
2022/05/27 00:26:48;;;;;;;376.27;249.90;;;;;;;23.40;67.18;99926.25;337689;29;1288;-79
2022/05/27 00:27:01;;;;;;;372.93;249.97;;;;;;;23.41;67.17;99920.75;340800;29;1027;-79
2022/05/27 00:27:11;;;;;;;373.30;252.05;;;;;;;23.42;67.64;99922.47;337128;29;1488;-79
2022/05/27 00:27:21;;;;;;;374.67;253.43;;;;;;;23.40;67.26;99924.41;334884;29;1487;-79
2022/05/27 00:27:32;;;;;;;375.50;254.23;;;;;;;23.40;67.45;99921.75;338510;29;1198;-79
2022/05/27 00:27:42;;;;;;;375.55;256.65;;;;;;;23.43;67.27;99924.16;340276;29;1239;-78
2022/05/27 00:27:53;;;;;;;374.93;257.63;;;;;;;23.41;67.14;99920.75;338088;29;1466;-79
2022/05/27 00:28:03;;;;;;;374.25;256.17;;;;;;;23.42;67.11;99919.78;338398;29;1255;-79
2022/05/27 00:28:14;;;;;;;371.90;251.67;;;;;;;23.43;67.13;99921.47;338446;29;1238;-79
2022/05/27 00:28:25;;;;;;;365.75;247.75;;;;;;;23.44;67.10;99928.50;338562;29;1472;-79
2022/05/27 00:28:35;;;;;;;366.27;246.87;;;;;;;23.43;67.30;99923.31;340136;29;1509;-79
2022/05/27 00:28:46;;;;;;;368.02;245.85;;;;;;;23.40;67.03;99924.41;338389;29;1486;-79
2022/05/27 00:28:56;;;;;;;369.60;244.87;;;;;;;23.42;67.42;99925.13;338842;29;849;-79
2022/05/27 00:29:07;;;;;;;368.40;247.02;;;;;;;23.41;67.30;99920.75;339092;29;1674;-79
2022/05/27 00:29:17;;;;;;;368.57;248.90;;;;;;;23.42;67.27;99925.13;338521;29;1469;-79
2022/05/27 00:29:28;;;;;;;371.13;250.32;;;;;;;23.42;67.28;99926.97;338441;29;1255;-79
2022/05/27 00:29:38;;;;;;;373.30;252.40;;;;;;;23.42;67.46;99927.81;339038;29;1518;-79
2022/05/27 00:29:49;;;;;;;372.23;250.80;;;;;;;23.42;67.06;99930.47;338395;29;1411;-79
2022/05/27 00:29:59;;;;;;;371.67;250.50;;;;;;;23.41;67.34;99928.78;337337;29;1204;-79
2022/05/27 00:30:10;;;;;;;372.58;250.40;;;;;;;23.42;67.05;99927.81;339314;29;1615;-79
2022/05/27 00:30:20;;;;;;;370.67;246.93;;;;;;;23.39;66.80;99928.09;341120;29;1480;-79
2022/05/27 00:30:31;;;;;;;371.58;247.07;;;;;;;23.41;67.17;99926.13;340055;29;1218;-79
2022/05/27 00:30:41;;;;;;;375.30;247.50;;;;;;;23.38;67.35;99926.41;337175;29;1552;-79
2022/05/27 00:30:52;;;;;;;379.23;253.32;;;;;;;23.35;67.66;99926.69;337063;29;1442;-79
2022/05/27 00:31:05;;;;;;;376.05;251.43;;;;;;;23.39;67.30;99921.91;339868;29;1553;-79
2022/05/27 00:31:18;;;;;;;371.25;246.90;;;;;;;23.37;67.11;99924.72;337475;29;1395;-79
2022/05/27 00:31:29;;;;;;;365.20;238.95;;;;;;;23.38;67.45;99931.75;337609;29;1534;-80
2022/05/27 00:31:39;;;;;;;365.50;240.98;;;;;;;23.32;67.36;99916.28;338417;29;1612;-80
2022/05/27 00:31:50;;;;;;;366.13;248.67;;;;;;;23.35;67.77;99926.69;338407;29;1462;-80
2022/05/27 00:32:01;;;;;;;368.43;254.27;;;;;;;23.34;67.34;99927.66;340077;29;1313;-80
2022/05/27 00:32:11;;;;;;;366.10;247.70;;;;;;;23.34;67.89;99925.00;340986;29;1439;-80
2022/05/27 00:32:21;;;;;;;367.25;246.70;;;;;;;23.34;67.64;99918.81;338250;29;1652;-80
2022/05/27 00:32:32;;;;;;;370.00;247.50;;;;;;;23.32;67.23;99923.44;338747;29;1288;-80
2022/05/27 00:32:43;;;;;;;376.00;253.90;;;;;;;23.35;67.70;99920.50;341098;29;1263;-80
2022/05/27 00:32:54;;;;;;;376.20;254.32;;;;;;;23.35;67.51;99921.34;340027;29;1569;-80
2022/05/27 00:33:05;;;;;;;376.25;253.63;;;;;;;23.37;67.22;99923.88;339543;28;4002;-80
2022/05/27 00:33:15;;;;;;;372.70;249.73;;;;;;;23.32;67.92;99920.78;338732;29;5066;-80
2022/05/27 00:33:26;;;;;;;375.30;251.80;;;;;;;23.36;67.27;99927.53;338695;29;1501;-80
2022/05/27 00:33:37;;;;;;;373.75;251.57;;;;;;;23.37;67.24;99929.22;336972;29;2571;-80
2022/05/27 00:33:47;;;;;;;373.52;248.95;;;;;;;23.36;67.51;99930.22;337674;29;1274;-80
2022/05/27 00:33:58;;;;;;;370.73;246.47;;;;;;;23.37;67.47;99922.06;341163;29;1388;-80
2022/05/27 00:34:09;;;;;;;370.42;250.30;;;;;;;23.36;67.33;99922.19;339995;29;1513;-81
2022/05/27 00:34:20;;;;;;;369.67;254.00;;;;;;;23.39;67.06;99921.91;336616;29;1486;-81
2022/05/27 00:34:30;;;;;;;370.05;254.65;;;;;;;23.36;67.47;99928.38;340483;29;1497;-80
2022/05/27 00:34:40;;;;;;;371.60;254.80;;;;;;;23.33;67.30;99912.63;339713;29;1545;-80
2022/05/27 00:34:51;;;;;;;374.27;255.38;;;;;;;23.35;67.33;99924.00;337947;29;1446;-80
2022/05/27 00:35:01;;;;;;;373.07;252.97;;;;;;;23.34;67.31;99925.00;339527;29;1124;-80
2022/05/27 00:35:12;;;;;;;369.47;247.83;;;;;;;23.37;67.24;99922.06;340182;29;1266;-80
2022/05/27 00:35:22;;;;;;;368.08;245.85;;;;;;;23.36;67.44;99922.19;339039;29;1548;-80
2022/05/27 00:35:33;;;;;;;368.53;247.00;;;;;;;23.35;67.57;99931.19;340168;29;1334;-80
2022/05/27 00:35:43;;;;;;;370.63;248.10;;;;;;;23.33;67.54;99920.63;338966;29;1238;-80
2022/05/27 00:35:53;;;;;;;368.20;244.43;;;;;;;23.34;67.40;99924.16;340865;29;1583;-80
2022/05/27 00:36:08;;;;;;;368.80;244.52;;;;;;;23.34;67.31;99927.66;339473;28;1508;-80
2022/05/27 00:36:18;;;;;;;366.98;246.73;;;;;;;23.33;67.71;99923.31;336025;29;1581;-80
2022/05/27 00:36:29;;;;;;;367.40;248.82;;;;;;;23.32;67.65;99921.63;341342;29;1119;-80
2022/05/27 00:36:39;;;;;;;368.83;250.03;;;;;;;23.32;67.68;99921.63;339760;29;1568;-80
2022/05/27 00:36:50;;;;;;;368.02;246.88;;;;;;;23.28;67.54;99920.19;337796;29;1557;-79
2022/05/27 00:37:04;;;;;;;372.00;250.17;;;;;;;23.28;67.78;99919.34;340446;29;1183;-80
2022/05/27 00:37:15;;;;;;;373.83;251.65;;;;;;;23.29;67.83;99919.22;337301;29;1009;-80
2022/05/27 00:37:25;;;;;;;371.05;252.20;;;;;;;23.26;67.56;99919.47;339692;29;1588;-80
2022/05/27 00:37:35;;;;;;;373.87;254.07;;;;;;;23.31;67.54;99925.25;338251;29;1604;-80
2022/05/27 00:37:46;;;;;;;371.50;254.82;;;;;;;23.32;67.61;99926.97;335981;29;1546;-80
2022/05/27 00:37:57;;;;;;;367.10;247.55;;;;;;;23.31;67.84;99922.59;337127;29;1640;-80
2022/05/27 00:38:07;;;;;;;365.77;245.60;;;;;;;23.32;67.80;99926.97;341959;28;1508;-80
2022/05/27 00:38:18;;;;;;;364.08;242.52;;;;;;;23.30;67.38;99923.56;340384;29;1461;-80
2022/05/27 00:38:28;;;;;;;366.03;247.50;;;;;;;23.32;67.52;99924.28;337207;29;1282;-80
2022/05/27 00:38:39;;;;;;;367.25;247.77;;;;;;;23.31;67.78;99921.75;339875;29;1552;-80
2022/05/27 00:38:49;;;;;;;370.20;249.97;;;;;;;23.30;67.87;99920.91;338508;29;1591;-80
2022/05/27 00:39:02;;;;;;;369.88;248.55;;;;;;;23.31;67.37;99924.44;339607;29;1218;-80
2022/05/27 00:39:12;;;;;;;365.63;244.23;;;;;;;23.31;67.78;99919.09;342610;28;1564;-80
2022/05/27 00:39:23;;;;;;;367.50;243.77;;;;;;;23.30;67.55;99923.56;340707;29;992;-80
2022/05/27 00:39:34;;;;;;;369.92;245.63;;;;;;;23.29;67.40;99919.22;336170;29;1557;-80
2022/05/27 00:39:44;;;;;;;371.50;251.37;;;;;;;23.30;67.80;99922.72;340144;29;1235;-80
2022/05/27 00:39:56;;;;;;;372.25;253.18;;;;;;;23.28;67.72;99917.53;338157;29;1458;-80
2022/05/27 00:40:07;;;;;;;372.17;251.73;;;;;;;23.32;67.38;99924.28;336613;29;1545;-80
2022/05/27 00:40:18;;;;;;;373.33;251.50;;;;;;;23.33;67.18;99923.31;337365;29;1525;-80
2022/05/27 00:40:40;;;;;;;371.17;251.93;;;;;;;23.32;67.57;99920.78;337196;29;1348;-80
2022/05/27 00:40:54;;;;;;;367.52;249.18;;;;;;;23.32;67.24;99920.78;339104;29;962;-80
2022/05/27 00:41:05;;;;;;;370.73;247.95;;;;;;;23.32;67.60;99920.78;339705;29;1477;-80
2022/05/27 00:41:15;;;;;;;368.85;248.00;;;;;;;23.28;67.58;99925.53;338287;29;1243;-80
2022/05/27 00:41:26;;;;;;;369.10;251.73;;;;;;;23.27;67.74;99923.84;340668;29;1275;-80
2022/05/27 00:41:36;;;;;;;371.00;254.63;;;;;;;23.28;67.21;99920.19;340490;29;1327;-80
2022/05/27 00:41:46;;;;;;;370.60;249.73;;;;;;;23.24;67.51;99921.44;337806;29;1576;-80
2022/05/27 00:41:57;;;;;;;369.13;246.33;;;;;;;23.27;67.62;99921.19;341461;28;1484;-80
2022/05/27 00:42:07;;;;;;;367.50;244.15;;;;;;;23.29;67.41;99924.56;338006;29;3263;-80
2022/05/27 00:42:18;;;;;;;369.33;250.90;;;;;;;23.29;67.53;99921.88;336262;29;3156;-80
2022/05/27 00:42:28;;;;;;;368.40;250.82;;;;;;;23.28;67.48;99922.88;337594;29;3092;-80
2022/05/27 00:42:41;;;;;;;373.33;255.87;;;;;;;23.24;67.53;99916.09;339660;29;1529;-80
2022/05/27 00:42:52;;;;;;;374.17;249.20;;;;;;;23.23;67.57;99914.41;338399;29;3262;-80
2022/05/27 00:43:02;;;;;;;373.80;245.03;;;;;;;23.26;67.46;99916.81;335660;29;1161;-80
2022/05/27 00:43:13;;;;;;;373.40;245.53;;;;;;;23.28;67.50;99922.88;339699;29;872;-80
2022/05/27 00:43:23;;;;;;;371.80;248.57;;;;;;;23.30;67.77;99925.41;339770;29;1481;-80
2022/05/27 00:43:33;;;;;;;371.83;249.00;;;;;;;23.27;67.41;99915.00;335978;29;1486;-80
2022/05/27 00:43:44;;;;;;;373.42;248.10;;;;;;;23.26;67.45;99915.97;336010;29;1380;-80
2022/05/27 00:43:54;;;;;;;373.07;245.67;;;;;;;23.27;67.75;99921.19;339470;29;1486;-81
2022/05/27 00:44:05;;;;;;;374.58;245.77;;;;;;;23.29;67.67;99924.56;338695;29;1508;-80
2022/05/27 00:44:15;;;;;;;373.77;242.20;;;;;;;23.29;67.37;99927.22;337802;29;1211;-80
2022/05/27 00:44:25;;;;;;;370.47;242.27;;;;;;;23.27;67.49;99917.66;342310;28;1343;-80
2022/05/27 00:44:36;;;;;;;368.00;242.30;;;;;;;23.29;67.51;99924.56;339792;29;1532;-80
2022/05/27 00:44:46;;;;;;;365.97;245.63;;;;;;;23.29;67.28;99924.56;335862;29;1156;-80
2022/05/27 00:44:57;;;;;;;366.13;245.18;;;;;;;23.30;67.75;99915.56;339362;29;1343;-80
2022/05/27 00:45:28;;;;;;;366.33;245.20;;;;;;;23.29;67.32;99921.03;339033;29;1450;-80
2022/05/27 00:45:41;;;;;;;362.80;239.68;;;;;;;23.30;67.24;99923.56;337013;29;1674;-80
2022/05/27 00:46:25;;;;;;;368.13;242.07;;;;;;;23.29;67.57;99921.88;337701;29;1910;-80
2022/05/27 00:46:35;;;;;;;362.25;242.55;;;;;;;23.26;67.38;99916.81;335568;29;1574;-81
2022/05/27 00:46:46;;;;;;;363.50;244.23;;;;;;;23.26;67.35;99922.16;337684;29;779;-81
2022/05/27 00:47:07;;;;;;;369.48;247.52;;;;;;;23.27;67.61;99918.50;339810;29;1557;-80
2022/05/27 00:47:19;;;;;;;370.15;243.95;;;;;;;23.26;67.61;99921.31;337114;29;1442;-80
2022/05/27 00:47:31;;;;;;;366.10;242.48;;;;;;;23.22;67.52;99920.72;338630;29;1408;-80
2022/05/27 00:47:42;;;;;;;364.10;241.32;;;;;;;23.23;67.92;99919.75;340904;29;1572;-80
2022/05/27 00:47:53;;;;;;;362.00;239.38;;;;;;;23.22;67.63;99916.25;337677;29;1414;-80
2022/05/27 00:48:07;;;;;;;362.95;239.95;;;;;;;23.21;67.66;99917.22;338586;29;1356;-80
2022/05/27 00:48:19;;;;;;;360.83;239.60;;;;;;;23.23;67.53;99917.09;341002;29;1405;-81
2022/05/27 00:48:29;;;;;;;363.00;242.50;;;;;;;23.23;67.76;99919.75;339853;29;988;-81
2022/05/27 00:48:40;;;;;;;367.73;244.47;;;;;;;23.22;67.58;99912.72;341531;29;1457;-80
2022/05/27 00:48:52;;;;;;;371.70;248.48;;;;;;;23.26;67.60;99924.81;339138;29;1437;-80
2022/05/27 00:49:14;;;;;;;369.65;245.93;;;;;;;23.24;67.31;99916.09;337305;29;978;-80
2022/05/27 00:49:25;;;;;;;365.90;245.85;;;;;;;23.22;67.49;99915.41;338301;29;1309;-81
2022/05/27 00:49:48;;;;;;;367.75;249.60;;;;;;;23.21;67.54;99913.69;339707;29;1568;-81
2022/05/27 00:50:06;;;;;;;372.88;249.32;;;;;;;23.23;67.35;99911.75;338432;29;1457;-81
2022/05/27 00:50:17;;;;;;;369.35;247.15;;;;;;;23.22;67.53;99915.41;337685;29;1396;-81
2022/05/27 00:50:32;;;;;;;369.30;245.43;;;;;;;23.24;67.70;99918.78;339775;29;1501;-81
2022/05/27 00:50:44;;;;;;;369.35;245.52;;;;;;;23.24;67.42;99918.78;338354;29;1401;-81
2022/05/27 00:50:54;;;;;;;366.83;246.63;;;;;;;23.22;67.61;99918.06;339360;29;1471;-81
2022/05/27 00:51:13;;;;;;;367.73;245.10;;;;;;;23.22;67.68;99920.72;340257;29;1517;-80